Time;durP1;ratioP1;P1;durP2;ratioP2;P2;SDS_P1;SDS_P2;PMS_P1;PMS_P2;Temp;Humidity;BMP_temperature;BMP_pressure;BME280_temperature;BME280_humidity;BME280_pressure;Samples;Min_cycle;Max_cycle;Signal;HPM_P1;HPM_P2
2023/10/28 00:01:23;;;;;;;22.52;3.40;;;14.80;98.80;;;;;;7384650;19;20066;-73
2023/10/28 00:03:51;;;;;;;20.55;3.50;;;14.80;98.60;;;;;;7384462;19;20088;-74
2023/10/28 00:06:21;;;;;;;15.68;3.22;;;14.70;98.60;;;;;;7406153;19;20027;-73
2023/10/28 00:08:53;;;;;;;24.83;3.80;;;14.70;98.90;;;;;;7383861;19;20007;-74
2023/10/28 00:11:22;;;;;;;25.58;3.45;;;14.90;98.70;;;;;;7383054;19;20002;-74
2023/10/28 00:13:52;;;;;;;18.52;3.47;;;14.70;98.70;;;;;;7384224;19;20002;-73
2023/10/28 00:19:32;;;;;;;13.20;2.40;;;14.80;98.50;;;;;;7382045;19;20011;-74
2023/10/28 00:22:00;;;;;;;19.00;3.42;;;14.70;99.00;;;;;;7384067;19;20019;-74
2023/10/28 00:24:32;;;;;;;20.55;2.95;;;14.80;98.80;;;;;;7383756;19;20006;-73
2023/10/28 00:27:00;;;;;;;;;;;14.70;98.70;;;;;;7406147;19;20010;-73
2023/10/28 00:29:29;;;;;;;25.55;3.28;;;14.70;98.80;;;;;;7383186;19;19964;-74
2023/10/28 00:31:58;;;;;;;14.35;2.85;;;14.60;98.80;;;;;;7382118;19;20007;-74
2023/10/28 00:34:26;;;;;;;15.93;3.00;;;14.60;98.90;;;;;;7383981;19;20411;-73
2023/10/28 00:36:55;;;;;;;20.85;3.63;;;14.50;99.20;;;;;;7383413;19;20011;-74
2023/10/28 00:39:24;;;;;;;22.42;3.33;;;14.50;99.40;;;;;;7387632;19;20010;-73
2023/10/28 00:41:56;;;;;;;23.23;3.30;;;14.50;99.60;;;;;;7404767;19;20062;-73
2023/10/28 00:44:25;;;;;;;12.45;2.78;;;14.60;99.70;;;;;;7382673;19;20007;-75
2023/10/28 00:46:53;;;;;;;22.10;3.10;;;14.60;99.60;;;;;;7382895;19;20494;-73
2023/10/28 00:49:22;;;;;;;16.95;3.03;;;14.60;99.60;;;;;;7385530;19;20527;-73
2023/10/28 00:51:51;;;;;;;15.02;2.53;;;14.70;99.60;;;;;;7382565;19;20019;-73
2023/10/28 00:54:22;;;;;;;13.50;2.78;;;14.80;99.60;;;;;;7402294;19;20034;-72
2023/10/28 00:56:51;;;;;;;18.90;3.23;;;14.80;99.40;;;;;;7382619;19;20013;-73
2023/10/28 00:59:23;;;;;;;13.82;2.95;;;14.80;99.40;;;;;;7382053;19;20279;-72
2023/10/28 01:01:53;;;;;;;23.85;3.30;;;14.90;99.30;;;;;;7382693;19;20241;-73
2023/10/28 01:04:22;;;;;;;14.90;3.35;;;14.90;99.30;;;;;;7382562;19;20003;-73
2023/10/28 01:06:51;;;;;;;12.50;2.55;;;14.90;99.20;;;;;;7382832;19;20011;-73
2023/10/28 01:09:21;;;;;;;8.70;2.47;;;14.80;99.30;;;;;;7404225;19;20033;-73
2023/10/28 01:11:51;;;;;;;18.75;3.42;;;14.90;99.70;;;;;;7381228;19;20038;-73
2023/10/28 01:14:22;;;;;;;34.05;3.22;;;14.80;99.50;;;;;;7381932;19;20006;-73
2023/10/28 01:16:51;;;;;;;24.02;3.40;;;14.70;99.70;;;;;;7381646;19;20066;-74
2023/10/28 01:19:20;;;;;;;15.18;3.00;;;14.90;99.60;;;;;;7382557;19;20013;-74
2023/10/28 01:21:52;;;;;;;22.08;2.60;;;14.90;99.40;;;;;;7382328;19;20063;-74
2023/10/28 01:24:20;;;;;;;23.38;3.38;;;14.80;99.30;;;;;;7403769;19;20010;-73
2023/10/28 01:26:49;;;;;;;13.63;2.33;;;14.80;99.40;;;;;;7381250;19;20299;-74
2023/10/28 01:29:18;;;;;;;16.30;3.05;;;14.60;99.60;;;;;;7381113;19;20238;-74
2023/10/28 01:31:47;;;;;;;21.13;3.55;;;14.80;99.50;;;;;;7381087;19;20019;-74
2023/10/28 01:34:15;;;;;;;15.35;3.00;;;14.60;99.70;;;;;;7382709;19;20023;-73
2023/10/28 01:36:45;;;;;;;18.38;3.00;;;14.70;99.50;;;;;;7381648;19;20495;-73
2023/10/28 01:39:16;;;;;;;16.85;3.05;;;14.80;99.60;;;;;;7402913;19;20010;-73
2023/10/28 01:41:46;;;;;;;;;;;14.80;99.50;;;;;;7383697;19;20003;-73
2023/10/28 01:44:16;;;;;;;15.73;2.92;;;14.90;99.50;;;;;;7382489;19;19903;-73
2023/10/28 01:46:44;;;;;;;17.95;2.70;;;15.00;99.40;;;;;;7381605;19;20058;-74
2023/10/28 01:49:13;;;;;;;18.48;2.63;;;14.90;99.30;;;;;;7380563;19;20003;-74
2023/10/28 01:51:42;;;;;;;22.27;3.05;;;14.80;99.60;;;;;;7380832;19;20266;-73
2023/10/28 01:54:15;;;;;;;21.50;2.92;;;14.90;99.50;;;;;;7403092;19;20006;-74
2023/10/28 01:56:44;;;;;;;33.30;3.58;;;14.90;99.40;;;;;;7380813;19;20007;-73
2023/10/28 01:59:13;;;;;;;17.30;3.17;;;15.00;99.30;;;;;;7380683;19;20007;-73
2023/10/28 02:01:42;;;;;;;17.63;3.55;;;14.60;99.60;;;;;;7380977;19;20070;-73
2023/10/28 02:04:11;;;;;;;17.20;2.90;;;14.80;99.60;;;;;;7381089;19;20007;-73
2023/10/28 02:06:40;;;;;;;21.45;2.33;;;14.90;99.50;;;;;;7380892;19;20020;-73
2023/10/28 02:09:10;;;;;;;13.95;2.47;;;15.00;99.30;;;;;;7403445;19;20010;-73
2023/10/28 02:11:43;;;;;;;18.67;2.50;;;14.60;99.50;;;;;;7379301;19;20371;-73
2023/10/28 02:14:12;;;;;;;20.48;2.63;;;14.80;99.60;;;;;;7380246;19;20007;-73
2023/10/28 02:16:41;;;;;;;23.05;3.13;;;14.70;99.60;;;;;;7379790;19;20405;-73
2023/10/28 02:19:10;;;;;;;22.90;3.78;;;14.80;99.60;;;;;;7380340;19;20095;-73
2023/10/28 02:21:38;;;;;;;10.95;2.80;;;14.80;99.40;;;;;;7381024;19;20030;-73
2023/10/28 02:24:09;;;;;;;14.18;2.58;;;14.90;99.50;;;;;;7402197;19;20027;-73
2023/10/28 02:26:40;;;;;;;11.05;2.70;;;14.90;99.50;;;;;;7379386;19;20429;-73
2023/10/28 02:29:09;;;;;;;15.68;2.45;;;14.60;99.40;;;;;;7379837;19;20016;-74
2023/10/28 02:31:38;;;;;;;20.63;2.80;;;14.40;99.90;;;;;;7379673;19;20015;-74
2023/10/28 02:34:10;;;;;;;9.93;2.03;;;14.60;99.90;;;;;;7380408;19;20008;-73
2023/10/28 02:36:39;;;;;;;17.73;2.85;;;14.80;99.90;;;;;;7379708;19;20483;-73
2023/10/28 02:39:09;;;;;;;17.38;2.78;;;14.90;99.70;;;;;;7401220;19;20054;-73
2023/10/28 02:41:41;;;;;;;24.80;2.80;;;15.00;99.50;;;;;;7379275;19;20010;-73
2023/10/28 02:44:09;;;;;;;;;;;15.00;99.40;;;;;;7381424;19;20007;-74
2023/10/28 02:46:38;;;;;;;13.63;2.60;;;14.80;99.30;;;;;;7379517;19;19903;-74
2023/10/28 02:49:07;;;;;;;13.95;2.35;;;14.90;99.40;;;;;;7379746;19;20034;-73
2023/10/28 02:51:36;;;;;;;18.75;2.50;;;15.00;99.30;;;;;;7379132;19;20011;-73
2023/10/28 02:54:05;;;;;;;17.45;2.63;;;15.00;99.20;;;;;;7400877;19;20058;-73
2023/10/28 02:56:33;;;;;;;18.08;2.50;;;15.00;99.00;;;;;;7378840;19;20022;-73
2023/10/28 02:59:07;;;;;;;10.63;2.28;;;14.90;99.30;;;;;;7378691;19;20063;-74
2023/10/28 03:01:38;;;;;;;14.68;2.40;;;14.90;99.20;;;;;;7378018;19;20006;-74
2023/10/28 03:04:07;;;;;;;21.83;2.80;;;14.90;99.20;;;;;;7378832;19;20010;-74
2023/10/28 03:06:36;;;;;;;14.48;2.80;;;14.80;99.20;;;;;;7379068;19;20024;-73
2023/10/28 03:09:06;;;;;;;16.88;2.88;;;14.90;99.20;;;;;;7400344;19;20172;-73
2023/10/28 03:11:34;;;;;;;12.02;2.65;;;14.70;99.40;;;;;;7377866;19;20011;-74
2023/10/28 03:14:06;;;;;;;17.85;2.58;;;14.70;99.40;;;;;;7378739;19;20063;-74
2023/10/28 03:16:35;;;;;;;13.48;2.72;;;14.80;99.30;;;;;;7378023;19;20324;-74
2023/10/28 03:19:03;;;;;;;18.05;2.92;;;14.90;99.20;;;;;;7378831;19;20006;-74
2023/10/28 03:21:32;;;;;;;12.43;2.25;;;14.80;99.10;;;;;;7376565;19;20295;-76
2023/10/28 03:24:01;;;;;;;20.17;2.88;;;14.70;99.20;;;;;;7399815;19;20365;-74
2023/10/28 03:26:32;;;;;;;19.45;2.30;;;14.60;99.10;;;;;;7377603;19;20014;-74
2023/10/28 03:29:01;;;;;;;15.40;2.60;;;14.60;99.10;;;;;;7378170;19;20003;-74
2023/10/28 03:31:32;;;;;;;18.35;2.20;;;14.50;99.20;;;;;;7378514;19;20020;-74
2023/10/28 03:34:00;;;;;;;20.70;2.47;;;14.60;99.40;;;;;;7377214;19;20218;-74
2023/10/28 03:36:29;;;;;;;21.67;2.72;;;14.50;99.40;;;;;;7378121;19;20059;-74
2023/10/28 03:38:58;;;;;;;14.40;2.10;;;14.70;99.20;;;;;;7399514;19;20002;-74
2023/10/28 03:41:27;;;;;;;16.50;2.78;;;14.70;99.10;;;;;;7377297;19;20007;-74
2023/10/28 03:43:56;;;;;;;18.77;2.67;;;14.60;99.10;;;;;;7378136;19;20415;-74
2023/10/28 03:46:25;;;;;;;19.92;2.67;;;14.70;98.90;;;;;;7378072;19;20051;-74
2023/10/28 03:48:56;;;;;;;21.88;2.80;;;14.50;99.30;;;;;;7377781;19;20007;-74
2023/10/28 03:51:27;;;;;;;;;;;14.70;99.20;;;;;;7378489;19;20011;-73
2023/10/28 03:53:57;;;;;;;16.63;2.83;;;14.40;99.20;;;;;;7397230;19;19978;-74
2023/10/28 03:56:26;;;;;;;21.98;2.90;;;14.60;99.40;;;;;;7376910;19;20365;-74
2023/10/28 03:58:55;;;;;;;15.00;2.75;;;14.50;99.40;;;;;;7377159;19;20237;-73
2023/10/28 04:01:23;;;;;;;18.67;3.20;;;14.40;99.70;;;;;;7377185;19;20010;-73
2023/10/28 04:03:52;;;;;;;12.57;2.50;;;14.40;99.80;;;;;;7377290;19;20091;-73
2023/10/28 04:06:24;;;;;;;21.20;2.83;;;14.40;99.70;;;;;;7399045;19;20062;-74
2023/10/28 04:08:55;;;;;;;23.75;2.92;;;14.50;99.70;;;;;;7376557;19;20105;-73
2023/10/28 04:11:24;;;;;;;21.67;3.10;;;14.40;99.70;;;;;;7378603;19;20006;-76
2023/10/28 04:13:53;;;;;;;17.73;3.53;;;14.50;99.70;;;;;;7383366;19;20074;-73
2023/10/28 04:16:21;;;;;;;20.13;2.85;;;14.40;99.70;;;;;;7384084;19;20016;-73
2023/10/28 04:18:51;;;;;;;26.40;3.60;;;14.60;99.60;;;;;;7384326;19;20058;-73
2023/10/28 04:21:19;;;;;;;20.02;3.13;;;14.60;99.40;;;;;;7405494;19;20401;-73
2023/10/28 04:23:51;;;;;;;19.20;2.70;;;14.60;99.40;;;;;;7383615;19;20002;-73
2023/10/28 04:26:20;;;;;;;19.05;3.05;;;14.60;99.60;;;;;;7383410;19;20424;-74
2023/10/28 04:28:48;;;;;;;14.60;2.85;;;14.50;99.50;;;;;;7383844;19;20102;-73
2023/10/28 04:31:17;;;;;;;25.88;3.30;;;14.60;99.50;;;;;;7383921;19;20023;-74
2023/10/28 04:33:46;;;;;;;26.73;6.43;;;14.70;99.40;;;;;;7382294;19;20019;-74
2023/10/28 04:36:15;;;;;;;20.50;5.10;;;14.70;99.30;;;;;;7405504;19;20007;-73
2023/10/28 04:38:43;;;;;;;22.10;5.80;;;14.70;99.20;;;;;;7382815;19;20013;-74
2023/10/28 04:41:15;;;;;;;33.72;9.18;;;14.70;99.10;;;;;;7383659;19;20007;-73
2023/10/28 04:43:43;;;;;;;22.30;3.42;;;14.60;99.50;;;;;;7383739;19;20019;-74
2023/10/28 04:46:12;;;;;;;18.23;2.90;;;14.70;99.30;;;;;;7383634;19;20003;-74
2023/10/28 04:48:42;;;;;;;23.75;3.05;;;14.80;99.50;;;;;;7387043;19;20357;-74
2023/10/28 04:51:11;;;;;;;22.77;2.85;;;14.80;99.10;;;;;;7404819;19;20010;-73
2023/10/28 04:53:40;;;;;;;17.85;3.33;;;14.60;99.10;;;;;;7381007;19;20006;-73
2023/10/28 04:56:09;;;;;;;23.80;2.95;;;14.70;99.20;;;;;;7382809;19;20357;-74
2023/10/28 04:58:40;;;;;;;17.85;2.97;;;14.80;99.10;;;;;;7383460;19;20013;-74
2023/10/28 05:01:09;;;;;;;14.43;2.63;;;14.70;99.00;;;;;;7383145;19;20013;-74
2023/10/28 05:03:38;;;;;;;22.52;3.55;;;14.70;99.10;;;;;;7383023;19;20003;-73
2023/10/28 05:06:09;;;;;;;12.68;2.47;;;14.60;99.20;;;;;;7404693;19;20020;-74
2023/10/28 05:08:38;;;;;;;26.05;3.60;;;14.60;99.20;;;;;;7382297;19;20796;-74
2023/10/28 05:11:08;;;;;;;16.55;3.05;;;14.50;99.10;;;;;;7382290;19;20226;-74
2023/10/28 05:13:39;;;;;;;32.22;3.50;;;14.70;99.20;;;;;;7382695;19;20006;-74
2023/10/28 05:16:09;;;;;;;;;;;14.70;99.10;;;;;;7383451;19;20010;-73
2023/10/28 05:18:38;;;;;;;19.33;2.97;;;14.80;99.10;;;;;;7382537;19;19947;-75
2023/10/28 05:21:08;;;;;;;27.77;3.58;;;14.80;98.90;;;;;;7403828;19;20006;-73
2023/10/28 05:23:37;;;;;;;21.05;3.28;;;14.80;98.90;;;;;;7379647;19;20007;-74
2023/10/28 05:26:07;;;;;;;13.73;2.53;;;14.80;99.00;;;;;;7381924;19;19999;-73
2023/10/28 05:28:35;;;;;;;17.05;2.78;;;14.70;99.00;;;;;;7382730;19;20022;-74
2023/10/28 05:31:07;;;;;;;28.83;3.63;;;14.60;99.30;;;;;;7382400;19;20018;-73
2023/10/28 05:33:35;;;;;;;24.42;3.50;;;14.70;99.20;;;;;;7381196;19;20078;-73
2023/10/28 05:36:05;;;;;;;17.40;2.75;;;14.70;99.10;;;;;;7403479;19;20244;-73
2023/10/28 05:38:34;;;;;;;22.35;3.47;;;14.70;99.20;;;;;;7380970;19;20073;-73
2023/10/28 05:41:03;;;;;;;22.48;2.88;;;14.50;99.10;;;;;;7383645;19;20242;-74
2023/10/28 05:43:31;;;;;;;16.40;2.58;;;14.70;99.10;;;;;;7382361;19;20023;-74
2023/10/28 05:46:02;;;;;;;25.40;3.05;;;14.80;99.10;;;;;;7381806;19;20098;-73
2023/10/28 05:48:33;;;;;;;18.93;2.70;;;14.50;99.20;;;;;;7380398;19;20254;-73
2023/10/28 05:51:04;;;;;;;8.50;2.10;;;14.70;99.20;;;;;;7402968;19;20067;-73
2023/10/28 05:53:32;;;;;;;26.85;3.78;;;14.80;99.10;;;;;;7380054;19;20002;-73
2023/10/28 05:56:01;;;;;;;15.57;3.03;;;14.60;98.90;;;;;;7381053;19;20028;-73
2023/10/28 05:58:30;;;;;;;17.65;2.90;;;14.80;98.90;;;;;;7381631;19;20007;-73
2023/10/28 06:00:59;;;;;;;18.63;2.88;;;14.90;98.90;;;;;;7381344;19;20009;-73
2023/10/28 06:03:29;;;;;;;22.30;2.72;;;14.80;98.80;;;;;;7380691;19;20013;-74
2023/10/28 06:06:00;;;;;;;18.70;3.35;;;14.90;98.80;;;;;;7402911;19;20015;-74
2023/10/28 06:08:29;;;;;;;25.40;2.88;;;15.00;98.80;;;;;;7380286;19;20426;-73
2023/10/28 06:10:58;;;;;;;18.45;2.92;;;14.80;98.70;;;;;;7380432;19;19999;-73
2023/10/28 06:13:28;;;;;;;22.70;3.03;;;14.80;98.80;;;;;;7379524;19;20381;-74
2023/10/28 06:15:56;;;;;;;10.07;2.55;;;14.80;98.80;;;;;;7380825;19;20006;-73
2023/10/28 06:18:25;;;;;;;18.80;2.85;;;14.90;98.70;;;;;;7378312;19;20378;-74
2023/10/28 06:20:54;;;;;;;15.18;2.60;;;15.00;98.70;;;;;;7402039;19;20007;-74
2023/10/28 06:23:25;;;;;;;15.15;2.60;;;15.00;98.60;;;;;;7380067;19;20023;-74
2023/10/28 06:25:54;;;;;;;24.60;3.35;;;14.80;98.70;;;;;;7380431;19;20143;-74
2023/10/28 06:28:23;;;;;;;14.43;2.88;;;14.90;98.70;;;;;;7380660;19;20070;-74
2023/10/28 06:30:53;;;;;;;15.00;2.60;;;14.90;98.70;;;;;;7380664;19;20058;-73
2023/10/28 06:33:22;;;;;;;19.23;2.47;;;15.00;98.70;;;;;;7401426;19;20078;-74
2023/10/28 06:35:51;;;;;;;23.63;3.78;;;15.00;98.60;;;;;;7379764;19;20063;-74
2023/10/28 06:38:20;;;;;;;21.45;3.47;;;14.90;98.60;;;;;;7380196;19;20003;-73
2023/10/28 06:40:51;;;;;;;15.80;3.22;;;14.90;98.50;;;;;;7380395;19;20058;-73
2023/10/28 06:43:22;;;;;;;22.08;2.70;;;14.80;98.70;;;;;;7380345;19;20003;-73
2023/10/28 06:45:51;;;;;;;13.40;2.35;;;14.90;98.70;;;;;;7378293;19;20007;-73
2023/10/28 06:48:19;;;;;;;10.50;2.22;;;15.00;98.70;;;;;;7401613;19;20019;-73
2023/10/28 06:50:48;;;;;;;12.32;2.53;;;14.90;98.40;;;;;;7379089;19;20006;-73
2023/10/28 06:53:17;;;;;;;15.90;2.92;;;14.90;98.70;;;;;;7379063;19;20082;-73
2023/10/28 06:55:48;;;;;;;13.27;1.88;;;15.00;98.60;;;;;;7380004;19;20016;-73
2023/10/28 06:58:19;;;;;;;10.90;2.22;;;15.00;98.60;;;;;;7379987;19;20074;-74
2023/10/28 07:00:48;;;;;;;14.02;3.03;;;15.10;98.50;;;;;;7379890;19;20095;-73
2023/10/28 07:03:17;;;;;;;8.90;2.25;;;15.10;98.40;;;;;;7401524;19;20011;-74
2023/10/28 07:05:45;;;;;;;16.27;2.63;;;15.10;98.40;;;;;;7378685;19;20003;-73
2023/10/28 07:08:15;;;;;;;18.92;2.25;;;15.00;98.60;;;;;;7378509;19;20013;-73
2023/10/28 07:10:43;;;;;;;20.35;2.95;;;15.00;98.60;;;;;;7379177;19;20254;-73
2023/10/28 07:13:12;;;;;;;16.67;2.97;;;15.00;98.60;;;;;;7378694;19;20007;-74
2023/10/28 07:15:44;;;;;;;11.68;2.05;;;15.00;98.50;;;;;;7380420;19;20017;-73
2023/10/28 07:18:13;;;;;;;16.10;3.13;;;15.00;98.60;;;;;;7403343;19;20018;-73
2023/10/28 07:20:44;;;;;;;8.48;2.35;;;14.80;98.60;;;;;;7378619;19;20246;-73
2023/10/28 07:23:13;;;;;;;20.60;2.67;;;14.80;98.70;;;;;;7378472;19;20009;-73
2023/10/28 07:25:46;;;;;;;15.30;2.65;;;14.90;99.00;;;;;;7378828;19;20397;-73
2023/10/28 07:28:15;;;;;;;12.02;2.15;;;14.90;99.00;;;;;;7378776;19;20191;-75
2023/10/28 07:30:51;;;;;;;10.65;4.13;;;14.90;98.90;;;;;;7379385;19;19996;-74
2023/10/28 07:33:21;;;;;;;12.48;2.60;;;14.80;99.00;;;;;;7401908;19;20007;-74
2023/10/28 07:35:50;;;;;;;13.05;2.47;;;14.90;99.10;;;;;;7377973;19;20022;-74
2023/10/28 07:38:19;;;;;;;20.02;5.47;;;15.10;99.00;;;;;;7377437;19;20230;-73
2023/10/28 07:40:49;;;;;;;18.40;6.53;;;15.20;98.90;;;;;;7378079;19;20051;-73
2023/10/28 07:43:19;;;;;;;17.52;3.05;;;15.00;98.70;;;;;;7378218;19;20019;-74
2023/10/28 07:45:50;;;;;;;22.10;2.72;;;15.10;98.70;;;;;;7377453;19;20007;-74
2023/10/28 07:48:19;;;;;;;12.02;2.67;;;15.10;98.70;;;;;;7407679;19;20247;-74
2023/10/28 07:50:48;;;;;;;15.75;4.85;;;15.10;98.70;;;;;;7384766;19;20066;-74
2023/10/28 07:53:17;;;;;;;13.27;2.67;;;15.20;98.60;;;;;;7384845;19;20007;-74
2023/10/28 07:55:45;;;;;;;14.27;2.85;;;15.30;98.60;;;;;;7387355;19;20002;-73
2023/10/28 07:58:16;;;;;;;14.68;2.78;;;15.20;98.70;;;;;;7385120;19;20051;-73
2023/10/28 08:00:46;;;;;;;15.23;2.13;;;15.10;98.70;;;;;;7385234;19;20067;-73
2023/10/28 08:03:19;;;;;;;14.77;2.78;;;15.20;98.60;;;;;;7407156;19;20010;-73
2023/10/28 08:05:48;;;;;;;17.48;3.25;;;15.30;98.60;;;;;;7384171;19;20353;-75
2023/10/28 08:08:16;;;;;;;8.07;2.22;;;15.30;98.60;;;;;;7383851;19;20096;-75
2023/10/28 08:10:45;;;;;;;14.75;2.38;;;15.30;98.60;;;;;;7384667;19;20023;-74
2023/10/28 08:13:14;;;;;;;8.63;2.25;;;15.20;98.50;;;;;;7382755;19;20002;-73
2023/10/28 08:15:44;;;;;;;14.05;2.63;;;15.30;98.60;;;;;;7384649;19;20023;-74
2023/10/28 08:18:15;;;;;;;12.88;2.00;;;15.30;98.70;;;;;;7403384;19;20361;-75
2023/10/28 08:20:46;;;;;;;15.20;2.10;;;15.40;98.60;;;;;;7383613;19;20044;-73
2023/10/28 08:23:17;;;;;;;6.53;1.98;;;15.40;98.60;;;;;;7383736;19;20037;-74
2023/10/28 08:25:46;;;;;;;9.63;1.98;;;15.40;98.50;;;;;;7384110;19;20021;-74
2023/10/28 08:28:16;;;;;;;8.88;2.50;;;15.30;98.40;;;;;;7384677;19;20013;-74
2023/10/28 08:30:46;;;;;;;13.57;2.92;;;15.00;99.20;;;;;;7387572;19;20011;-74
2023/10/28 08:33:14;;;;;;;11.35;2.40;;;15.20;99.10;;;;;;7405016;19;20003;-74
2023/10/28 08:35:46;;;;;;;10.75;2.05;;;15.20;98.90;;;;;;7382221;19;20079;-75
2023/10/28 08:38:16;;;;;;;;;;;15.20;98.70;;;;;;7383359;19;20078;-74
2023/10/28 08:40:48;;;;;;;11.30;2.50;;;15.00;99.10;;;;;;7383327;19;19938;-74
2023/10/28 08:43:16;;;;;;;10.05;2.53;;;14.90;99.20;;;;;;7383213;19;20255;-75
2023/10/28 08:45:46;;;;;;;13.00;2.60;;;14.90;99.20;;;;;;7383300;19;20023;-75
2023/10/28 08:48:15;;;;;;;10.77;2.10;;;14.90;99.40;;;;;;7404765;19;20085;-74
2023/10/28 08:50:53;;;;;;;9.48;2.17;;;14.90;99.20;;;;;;7382451;19;20062;-74
2023/10/28 08:53:24;;;;;;;10.55;2.13;;;15.00;99.20;;;;;;7382653;19;20274;-74
2023/10/28 08:55:52;;;;;;;6.25;1.95;;;15.00;99.30;;;;;;7383010;19;20006;-74
2023/10/28 08:58:22;;;;;;;14.65;2.55;;;15.20;99.10;;;;;;7380298;19;20011;-74
2023/10/28 09:00:54;;;;;;;8.98;2.75;;;15.30;98.90;;;;;;7383452;19;20006;-75
2023/10/28 09:03:24;;;;;;;8.88;1.77;;;15.30;98.70;;;;;;7400522;19;20007;-74
2023/10/28 09:05:59;;;;;;;6.85;1.92;;;15.40;98.60;;;;;;7405360;19;20090;-74
2023/10/28 09:08:29;;;;;;;4.03;1.52;;;15.50;98.40;;;;;;7382607;19;20003;-75
2023/10/28 09:10:58;;;;;;;10.45;2.13;;;15.30;98.70;;;;;;7382670;19;20005;-74
2023/10/28 09:13:27;;;;;;;10.75;2.13;;;15.40;98.60;;;;;;7382814;19;20211;-75
2023/10/28 09:15:58;;;;;;;8.93;1.90;;;15.50;98.50;;;;;;7380406;19;20015;-73
2023/10/28 09:18:27;;;;;;;10.43;2.28;;;15.60;98.50;;;;;;7380613;19;20027;-73
2023/10/28 09:20:59;;;;;;;6.65;1.77;;;15.70;98.30;;;;;;7404123;19;20011;-74
2023/10/28 09:23:30;;;;;;;;;;;15.60;98.20;;;;;;7382039;19;20361;-73
2023/10/28 09:25:59;;;;;;;4.50;1.27;;;15.60;98.30;;;;;;7383862;19;19921;-74
2023/10/28 09:28:30;;;;;;;4.45;1.35;;;15.70;98.20;;;;;;7382094;19;19999;-75
2023/10/28 09:30:59;;;;;;;6.22;1.20;;;15.70;98.10;;;;;;7382025;19;20006;-74
2023/10/28 09:33:28;;;;;;;3.58;1.50;;;15.70;98.10;;;;;;7381376;19;20214;-74
2023/10/28 09:36:01;;;;;;;13.10;1.83;;;15.60;98.10;;;;;;7401324;19;20020;-74
2023/10/28 09:38:31;;;;;;;9.65;1.95;;;15.70;98.10;;;;;;7381333;19;20077;-73
2023/10/28 09:41:01;;;;;;;7.57;1.60;;;15.80;98.00;;;;;;7381494;19;20323;-74
2023/10/28 09:43:31;;;;;;;4.60;1.67;;;15.30;98.30;;;;;;7381764;19;20003;-74
2023/10/28 09:45:59;;;;;;;2.97;1.05;;;15.50;98.40;;;;;;7381986;19;20011;-74
2023/10/28 09:48:34;;;;;;;4.18;1.40;;;15.20;98.60;;;;;;7383317;19;20066;-75
2023/10/28 09:51:07;;;;;;;6.10;1.48;;;15.40;98.60;;;;;;7403705;19;20019;-75
2023/10/28 09:53:37;;;;;;;3.97;1.40;;;15.50;98.40;;;;;;7380373;19;20010;-73
2023/10/28 09:56:08;;;;;;;6.55;1.10;;;15.30;98.60;;;;;;7379971;19;20003;-74
2023/10/28 09:58:41;;;;;;;5.65;1.50;;;15.20;98.40;;;;;;7380576;19;20242;-74
2023/10/28 10:01:19;;;;;;;2.70;1.27;;;15.40;98.70;;;;;;7380947;19;20044;-74
2023/10/28 10:04:00;;;;;;;7.95;1.98;;;15.60;98.20;;;;;;7381145;19;20002;-74
2023/10/28 10:06:32;;;;;;;8.10;2.15;;;15.60;98.20;;;;;;7380988;19;20017;-74
2023/10/28 10:09:04;;;;;;;5.43;1.40;;;15.60;98.00;;;;;;7400370;19;20360;-75
2023/10/28 10:11:33;;;;;;;5.93;1.33;;;15.60;97.90;;;;;;7380060;19;20262;-76
2023/10/28 10:14:11;;;;;;;4.63;1.33;;;15.40;97.80;;;;;;7380086;19;20012;-75
2023/10/28 10:16:52;;;;;;;6.95;1.38;;;15.40;98.00;;;;;;7379668;19;20240;-75
2023/10/28 10:19:24;;;;;;;7.05;1.38;;;15.30;98.20;;;;;;7380673;19;20034;-76
2023/10/28 10:21:55;;;;;;;4.25;1.63;;;15.20;98.20;;;;;;7382017;19;20002;-74
2023/10/28 10:24:27;;;;;;;5.07;1.55;;;15.30;98.30;;;;;;7384371;19;20007;-74
2023/10/28 10:26:59;;;;;;;3.33;1.40;;;15.50;98.00;;;;;;7402656;19;20007;-73
2023/10/28 10:29:29;;;;;;;237.68;127.95;;;15.30;97.90;;;;;;7381080;19;20090;-76
2023/10/28 10:31:59;;;;;;;19.50;10.13;;;15.30;98.30;;;;;;7381074;19;20071;-77
2023/10/28 10:34:37;;;;;;;9.30;3.75;;;15.20;98.40;;;;;;7384081;19;20341;-78
2023/10/28 10:37:09;;;;;;;3.78;1.98;;;15.40;98.20;;;;;;7383285;19;20035;-77
2023/10/28 10:39:46;;;;;;;16.98;3.53;;;15.60;97.90;;;;;;7382988;19;20038;-77
2023/10/28 10:42:15;;;;;;;6.00;2.35;;;15.70;97.90;;;;;;7405304;19;20027;-77
2023/10/28 10:44:44;;;;;;;10.85;3.13;;;15.80;97.60;;;;;;7384218;19;20027;-77
2023/10/28 10:47:20;;;;;;;5.45;1.67;;;15.90;97.50;;;;;;7384945;19;20014;-78
2023/10/28 10:49:49;;;;;;;8.82;2.65;;;15.60;97.60;;;;;;7383197;19;20035;-77
2023/10/28 10:52:21;;;;;;;5.40;1.48;;;15.70;97.60;;;;;;7384044;19;20013;-78
2023/10/28 10:54:50;;;;;;;4.07;1.60;;;15.70;97.30;;;;;;7384690;19;20007;-77
2023/10/28 10:57:18;;;;;;;5.22;1.27;;;15.80;97.10;;;;;;7406339;19;20113;-75
2023/10/28 10:59:49;;;;;;;9.90;1.88;;;15.30;97.20;;;;;;7386451;19;20007;-76
2023/10/28 11:02:18;;;;;;;11.07;1.87;;;15.40;97.70;;;;;;7382174;19;20003;-76
2023/10/28 11:04:47;;;;;;;5.85;1.50;;;15.30;97.40;;;;;;7382172;19;20007;-75
2023/10/28 11:07:20;;;;;;;3.85;1.48;;;15.40;97.50;;;;;;7384450;19;20002;-78
2023/10/28 11:09:51;;;;;;;5.70;2.42;;;15.60;97.40;;;;;;7385865;19;20034;-76
2023/10/28 11:12:24;;;;;;;8.93;3.40;;;15.60;97.10;;;;;;7402106;19;20011;-77
2023/10/28 11:14:55;;;;;;;6.90;1.90;;;15.70;97.10;;;;;;7381756;19;20023;-77
2023/10/28 11:17:25;;;;;;;3.88;1.40;;;15.80;96.80;;;;;;7380343;19;20014;-75
2023/10/28 11:19:54;;;;;;;3.95;1.48;;;15.70;97.20;;;;;;7382202;19;20043;-77
2023/10/28 11:22:23;;;;;;;3.47;1.50;;;15.70;96.70;;;;;;7381253;19;20003;-80
2023/10/28 11:25:05;;;;;;;5.25;1.45;;;15.90;96.60;;;;;;7386558;19;20015;-77
2023/10/28 11:27:37;;;;;;;4.05;1.20;;;15.90;96.20;;;;;;7385190;19;20014;-77
2023/10/28 11:30:10;;;;;;;9.43;3.38;;;16.00;96.50;;;;;;7404491;19;20014;-78
2023/10/28 11:32:42;;;;;;;7.18;1.45;;;15.90;96.50;;;;;;7384502;19;20010;-78
2023/10/28 11:35:13;;;;;;;9.73;2.10;;;15.90;96.50;;;;;;7380778;19;20068;-77
2023/10/28 11:37:42;;;;;;;1.67;1.00;;;15.90;96.60;;;;;;7383711;19;20034;-77
2023/10/28 11:40:14;;;;;;;1.95;1.20;;;16.00;96.30;;;;;;7382902;19;20003;-78
2023/10/28 11:42:45;;;;;;;6.03;1.15;;;15.90;96.10;;;;;;7382997;19;20023;-77
2023/10/28 11:45:15;;;;;;;2.00;0.95;;;15.90;96.10;;;;;;7403818;19;20011;-77
2023/10/28 11:47:44;;;;;;;4.95;1.48;;;15.80;96.30;;;;;;7379905;19;20010;-75
2023/10/28 11:50:12;;;;;;;5.72;1.13;;;16.00;96.10;;;;;;7379194;19;20010;-77
2023/10/28 11:52:43;;;;;;;2.85;0.80;;;15.90;96.10;;;;;;7376384;19;20070;-75
2023/10/28 11:55:14;;;;;;;7.63;0.90;;;15.90;95.90;;;;;;7379575;19;20006;-75
2023/10/28 11:57:43;;;;;;;2.50;0.90;;;15.80;96.20;;;;;;7378343;19;20024;-75
2023/10/28 12:00:14;;;;;;;4.30;0.90;;;16.00;96.20;;;;;;7401058;19;20014;-75
2023/10/28 12:02:43;;;;;;;2.58;1.30;;;16.10;96.00;;;;;;7377004;19;20009;-74
2023/10/28 12:05:13;;;;;;;4.93;2.00;;;16.00;96.20;;;;;;7378734;19;20405;-75
2023/10/28 12:07:44;;;;;;;4.18;1.55;;;16.00;96.10;;;;;;7378577;19;20680;-75
2023/10/28 12:10:16;;;;;;;6.35;1.58;;;16.10;96.10;;;;;;7378653;19;20010;-74
2023/10/28 12:12:44;;;;;;;;;;;16.20;96.10;;;;;;7381864;19;20932;-74
2023/10/28 12:15:13;;;;;;;5.13;2.30;;;16.30;96.10;;;;;;7399658;19;19913;-74
2023/10/28 12:17:42;;;;;;;2.63;1.10;;;16.40;96.10;;;;;;7375015;19;20014;-75
2023/10/28 12:20:14;;;;;;;2.25;1.13;;;16.20;95.90;;;;;;7376813;19;20254;-75
2023/10/28 12:22:43;;;;;;;2.47;0.90;;;16.00;96.30;;;;;;7378520;19;20075;-75
2023/10/28 12:25:14;;;;;;;2.22;0.85;;;16.20;96.30;;;;;;7377912;19;20016;-75
2023/10/28 12:27:49;;;;;;;2.20;0.73;;;16.20;96.60;;;;;;7378024;19;20027;-75
2023/10/28 12:30:18;;;;;;;2.95;0.70;;;16.20;96.10;;;;;;7399109;19;20082;-75
2023/10/28 12:32:49;;;;;;;2.28;1.20;;;16.20;96.30;;;;;;7378919;19;20026;-74
2023/10/28 12:35:18;;;;;;;2.03;1.30;;;16.20;96.40;;;;;;7382789;19;20006;-75
2023/10/28 12:37:47;;;;;;;2.50;1.10;;;16.20;96.40;;;;;;7384694;19;20011;-74
2023/10/28 12:40:15;;;;;;;3.25;1.20;;;16.10;96.60;;;;;;7384393;19;20002;-75
2023/10/28 12:42:48;;;;;;;2.72;1.02;;;16.20;96.60;;;;;;7384412;19;20088;-75
2023/10/28 12:45:16;;;;;;;1.70;0.80;;;16.30;96.50;;;;;;7408001;19;20287;-75
2023/10/28 12:47:48;;;;;;;4.38;1.02;;;16.40;96.40;;;;;;7384266;19;20023;-75
2023/10/28 12:50:17;;;;;;;;;;;16.40;96.40;;;;;;7383902;19;20002;-74
2023/10/28 12:52:46;;;;;;;3.05;0.95;;;16.30;96.60;;;;;;7383359;19;19906;-74
2023/10/28 12:55:14;;;;;;;1.67;1.00;;;16.40;96.50;;;;;;7382758;19;20027;-74
2023/10/28 12:57:46;;;;;;;1.55;0.82;;;16.40;96.60;;;;;;7383223;19;20318;-74
2023/10/28 13:00:17;;;;;;;1.75;0.82;;;16.30;96.50;;;;;;7405043;19;20011;-75